sensor_id;sensor_type;location;lat;lon;timestamp;pressure;altitude;pressure_sealevel;temperature;humidity
46394;BME280;32099;53.588;10.176;2023-06-24T00:02:18;101948.78;;;17.51;76.08
46394;BME280;32099;53.588;10.176;2023-06-24T00:04:44;101945.78;;;17.46;75.84
46394;BME280;32099;53.588;10.176;2023-06-24T00:07:09;101950.84;;;17.42;76.27
46394;BME280;32099;53.588;10.176;2023-06-24T00:09:35;101959.06;;;17.35;76.42
46394;BME280;32099;53.588;10.176;2023-06-24T00:12:01;101958.56;;;17.32;76.01
46394;BME280;32099;53.588;10.176;2023-06-24T00:14:27;101963.63;;;17.28;76.13
46394;BME280;32099;53.588;10.176;2023-06-24T00:16:53;101963.56;;;17.21;76.56
46394;BME280;32099;53.588;10.176;2023-06-24T00:19:20;101962.22;;;17.10;77.31
46394;BME280;32099;53.588;10.176;2023-06-24T00:21:47;101965.16;;;17.09;76.76
46394;BME280;32099;53.588;10.176;2023-06-24T00:24:13;101961.09;;;17.05;77.02
46394;BME280;32099;53.588;10.176;2023-06-24T00:26:38;101964.03;;;17.03;77.04
46394;BME280;32099;53.588;10.176;2023-06-24T00:29:03;101960.44;;;17.03;77.11
46394;BME280;32099;53.588;10.176;2023-06-24T00:31:29;101957.25;;;16.99;77.00
46394;BME280;32099;53.588;10.176;2023-06-24T00:33:54;101969.50;;;16.96;76.85
46394;BME280;32099;53.588;10.176;2023-06-24T00:36:20;101961.16;;;16.90;77.17
46394;BME280;32099;53.588;10.176;2023-06-24T00:38:46;101966.56;;;16.83;77.41
46394;BME280;32099;53.588;10.176;2023-06-24T00:41:11;101981.41;;;16.82;77.14
46394;BME280;32099;53.588;10.176;2023-06-24T00:43:36;101980.06;;;16.78;77.27
46394;BME280;32099;53.588;10.176;2023-06-24T00:46:03;101981.31;;;16.75;77.51
46394;BME280;32099;53.588;10.176;2023-06-24T00:48:29;101974.03;;;16.68;77.20
46394;BME280;32099;53.588;10.176;2023-06-24T00:50:56;101985.03;;;16.68;77.25
46394;BME280;32099;53.588;10.176;2023-06-24T00:53:23;101985.63;;;16.63;77.08
46394;BME280;32099;53.588;10.176;2023-06-24T00:55:49;101981.94;;;16.56;77.10
46394;BME280;32099;53.588;10.176;2023-06-24T00:58:15;101987.81;;;16.53;77.37
46394;BME280;32099;53.588;10.176;2023-06-24T01:00:44;101983.06;;;16.46;77.42
46394;BME280;32099;53.588;10.176;2023-06-24T01:03:11;101971.50;;;16.36;77.37
46394;BME280;32099;53.588;10.176;2023-06-24T01:05:41;101987.84;;;16.38;78.01
46394;BME280;32099;53.588;10.176;2023-06-24T01:08:08;101983.97;;;16.32;77.75
46394;BME280;32099;53.588;10.176;2023-06-24T01:10:34;101985.38;;;16.28;78.10
46394;BME280;32099;53.588;10.176;2023-06-24T01:13:00;101987.69;;;16.24;78.56
46394;BME280;32099;53.588;10.176;2023-06-24T01:15:25;101996.09;;;16.23;78.74
46394;BME280;32099;53.588;10.176;2023-06-24T01:20:34;101996.50;;;16.19;78.41
46394;BME280;32099;53.588;10.176;2023-06-24T01:23:11;101990.13;;;16.19;78.56
46394;BME280;32099;53.588;10.176;2023-06-24T01:25:57;101993.09;;;16.17;78.54
46394;BME280;32099;53.588;10.176;2023-06-24T01:31:29;101998.84;;;16.08;78.32
46394;BME280;32099;53.588;10.176;2023-06-24T01:34:25;102010.25;;;16.04;78.16
46394;BME280;32099;53.588;10.176;2023-06-24T01:36:57;102006.84;;;16.02;78.39
46394;BME280;32099;53.588;10.176;2023-06-24T01:39:33;102002.75;;;15.98;78.35
46394;BME280;32099;53.588;10.176;2023-06-24T01:42:12;102002.66;;;15.92;78.78
46394;BME280;32099;53.588;10.176;2023-06-24T01:44:41;101998.38;;;15.89;78.50
46394;BME280;32099;53.588;10.176;2023-06-24T01:47:08;102005.28;;;15.85;79.12
46394;BME280;32099;53.588;10.176;2023-06-24T01:49:37;102003.75;;;15.82;78.69
46394;BME280;32099;53.588;10.176;2023-06-24T01:52:05;102008.94;;;15.77;79.27
46394;BME280;32099;53.588;10.176;2023-06-24T01:54:33;102015.69;;;15.74;79.31
46394;BME280;32099;53.588;10.176;2023-06-24T01:57:01;102012.25;;;15.72;78.83
46394;BME280;32099;53.588;10.176;2023-06-24T01:59:29;102017.28;;;15.69;79.26
46394;BME280;32099;53.588;10.176;2023-06-24T02:01:55;102014.91;;;15.66;78.94
46394;BME280;32099;53.588;10.176;2023-06-24T02:04:22;102015.94;;;15.65;79.56
46394;BME280;32099;53.588;10.176;2023-06-24T02:06:50;102002.09;;;15.58;79.35
46394;BME280;32099;53.588;10.176;2023-06-24T02:09:19;102007.41;;;15.60;78.97
46394;BME280;32099;53.588;10.176;2023-06-24T02:11:46;102006.72;;;15.57;78.76
46394;BME280;32099;53.588;10.176;2023-06-24T02:14:12;102004.19;;;15.56;79.09
46394;BME280;32099;53.588;10.176;2023-06-24T02:16:40;101993.06;;;15.49;78.66
46394;BME280;32099;53.588;10.176;2023-06-24T02:19:08;102009.38;;;15.51;79.37
46394;BME280;32099;53.588;10.176;2023-06-24T02:21:35;102011.63;;;15.47;78.87
46394;BME280;32099;53.588;10.176;2023-06-24T02:24:03;102013.72;;;15.45;79.02
46394;BME280;32099;53.588;10.176;2023-06-24T02:26:30;102025.94;;;15.42;78.96
46394;BME280;32099;53.588;10.176;2023-06-24T02:28:55;102020.78;;;15.39;78.95
46394;BME280;32099;53.588;10.176;2023-06-24T02:31:22;102033.03;;;15.37;78.98
46394;BME280;32099;53.588;10.176;2023-06-24T02:33:48;102025.81;;;15.36;78.63
46394;BME280;32099;53.588;10.176;2023-06-24T02:36:13;102034.06;;;15.36;78.63
46394;BME280;32099;53.588;10.176;2023-06-24T02:38:38;102028.91;;;15.33;79.36
46394;BME280;32099;53.588;10.176;2023-06-24T02:41:04;102023.97;;;15.28;79.03
46394;BME280;32099;53.588;10.176;2023-06-24T02:43:29;102036.19;;;15.25;79.46
46394;BME280;32099;53.588;10.176;2023-06-24T02:45:55;102038.63;;;15.20;78.95
46394;BME280;32099;53.588;10.176;2023-06-24T02:48:24;102035.41;;;15.17;79.54
46394;BME280;32099;53.588;10.176;2023-06-24T02:50:49;102033.69;;;15.16;79.59
46394;BME280;32099;53.588;10.176;2023-06-24T02:53:16;102042.13;;;15.14;79.33
46394;BME280;32099;53.588;10.176;2023-06-24T02:55:41;102033.19;;;15.12;78.97
46394;BME280;32099;53.588;10.176;2023-06-24T02:58:09;102040.41;;;15.13;79.14
46394;BME280;32099;53.588;10.176;2023-06-24T03:00:35;102040.75;;;15.10;79.67
46394;BME280;32099;53.588;10.176;2023-06-24T03:03:02;102046.44;;;15.08;79.45
46394;BME280;32099;53.588;10.176;2023-06-24T03:05:29;102034.97;;;15.05;79.28
46394;BME280;32099;53.588;10.176;2023-06-24T03:07:56;102043.38;;;15.03;79.52
46394;BME280;32099;53.588;10.176;2023-06-24T03:10:25;102042.34;;;15.04;79.34
46394;BME280;32099;53.588;10.176;2023-06-24T03:12:51;102041.66;;;15.02;79.90
46394;BME280;32099;53.588;10.176;2023-06-24T03:15:17;102042.88;;;15.00;79.71
46394;BME280;32099;53.588;10.176;2023-06-24T03:17:42;102043.25;;;14.96;79.81
46394;BME280;32099;53.588;10.176;2023-06-24T03:20:07;102045.16;;;14.96;79.45
46394;BME280;32099;53.588;10.176;2023-06-24T03:22:33;102043.06;;;14.98;79.51
46394;BME280;32099;53.588;10.176;2023-06-24T03:24:59;102045.81;;;14.98;78.84
46394;BME280;32099;53.588;10.176;2023-06-24T03:27:24;102041.84;;;15.01;79.38
46394;BME280;32099;53.588;10.176;2023-06-24T03:29:49;102043.56;;;15.02;78.76
46394;BME280;32099;53.588;10.176;2023-06-24T03:32:15;102042.03;;;14.99;79.89
46394;BME280;32099;53.588;10.176;2023-06-24T03:34:40;102049.41;;;14.99;79.34
46394;BME280;32099;53.588;10.176;2023-06-24T03:37:05;102052.16;;;14.99;79.93
46394;BME280;32099;53.588;10.176;2023-06-24T03:39:31;102056.47;;;14.93;80.03
46394;BME280;32099;53.588;10.176;2023-06-24T03:41:56;102053.06;;;14.91;80.34
46394;BME280;32099;53.588;10.176;2023-06-24T03:44:21;102065.06;;;14.90;80.57
46394;BME280;32099;53.588;10.176;2023-06-24T03:46:47;102064.22;;;14.89;80.88
46394;BME280;32099;53.588;10.176;2023-06-24T03:49:12;102060.66;;;14.89;80.55
46394;BME280;32099;53.588;10.176;2023-06-24T03:51:37;102053.25;;;14.89;80.72
46394;BME280;32099;53.588;10.176;2023-06-24T03:54:02;102048.44;;;14.91;80.44
46394;BME280;32099;53.588;10.176;2023-06-24T03:56:28;102053.75;;;14.93;80.08
46394;BME280;32099;53.588;10.176;2023-06-24T03:58:53;102062.47;;;14.96;80.62
46394;BME280;32099;53.588;10.176;2023-06-24T04:01:18;102055.09;;;14.97;81.08
46394;BME280;32099;53.588;10.176;2023-06-24T04:03:44;102060.41;;;14.99;81.17
46394;BME280;32099;53.588;10.176;2023-06-24T04:06:10;102063.81;;;15.01;80.83
46394;BME280;32099;53.588;10.176;2023-06-24T04:08:35;102057.09;;;15.03;81.52
46394;BME280;32099;53.588;10.176;2023-06-24T04:11:04;102060.38;;;15.07;81.16
46394;BME280;32099;53.588;10.176;2023-06-24T04:13:30;102058.78;;;15.13;81.17
46394;BME280;32099;53.588;10.176;2023-06-24T04:15:55;102059.28;;;15.16;82.54
46394;BME280;32099;53.588;10.176;2023-06-24T04:18:20;102057.03;;;15.20;81.80
46394;BME280;32099;53.588;10.176;2023-06-24T04:20:45;102063.00;;;15.23;82.35
46394;BME280;32099;53.588;10.176;2023-06-24T04:23:12;102064.16;;;15.29;82.61
46394;BME280;32099;53.588;10.176;2023-06-24T04:25:39;102059.81;;;15.35;82.37
46394;BME280;32099;53.588;10.176;2023-06-24T04:28:05;102053.22;;;15.44;81.97
46394;BME280;32099;53.588;10.176;2023-06-24T04:30:31;102047.50;;;15.54;81.97
46394;BME280;32099;53.588;10.176;2023-06-24T04:32:56;102053.28;;;15.59;82.25
46394;BME280;32099;53.588;10.176;2023-06-24T04:35:22;102057.19;;;15.65;82.41
46394;BME280;32099;53.588;10.176;2023-06-24T04:37:47;102057.50;;;15.70;82.73
46394;BME280;32099;53.588;10.176;2023-06-24T04:40:14;102065.50;;;15.80;82.62
46394;BME280;32099;53.588;10.176;2023-06-24T04:42:41;102065.06;;;15.91;83.61
46394;BME280;32099;53.588;10.176;2023-06-24T04:45:07;102069.56;;;16.07;81.97
46394;BME280;32099;53.588;10.176;2023-06-24T04:47:32;102071.53;;;16.28;81.31
46394;BME280;32099;53.588;10.176;2023-06-24T04:49:57;102063.50;;;16.42;80.87
46394;BME280;32099;53.588;10.176;2023-06-24T04:52:23;102058.44;;;16.45;80.71
46394;BME280;32099;53.588;10.176;2023-06-24T04:54:48;102067.84;;;16.51;81.17
46394;BME280;32099;53.588;10.176;2023-06-24T04:57:27;102070.34;;;16.46;81.21
46394;BME280;32099;53.588;10.176;2023-06-24T04:59:54;102074.13;;;16.45;83.55
46394;BME280;32099;53.588;10.176;2023-06-24T05:02:20;102075.84;;;16.46;82.21
46394;BME280;32099;53.588;10.176;2023-06-24T05:04:45;102079.94;;;16.50;81.29
46394;BME280;32099;53.588;10.176;2023-06-24T05:07:11;102064.34;;;16.57;81.32
46394;BME280;32099;53.588;10.176;2023-06-24T05:09:37;102066.63;;;16.69;80.83
46394;BME280;32099;53.588;10.176;2023-06-24T05:12:03;102059.66;;;16.88;80.80
46394;BME280;32099;53.588;10.176;2023-06-24T05:14:29;102057.09;;;17.01;80.04
46394;BME280;32099;53.588;10.176;2023-06-24T05:16:55;102076.19;;;17.24;79.61
46394;BME280;32099;53.588;10.176;2023-06-24T05:19:20;102078.78;;;17.48;78.67
46394;BME280;32099;53.588;10.176;2023-06-24T05:21:45;102082.19;;;17.71;78.29
46394;BME280;32099;53.588;10.176;2023-06-24T05:24:11;102077.03;;;17.90;77.78
46394;BME280;32099;53.588;10.176;2023-06-24T05:26:36;102070.00;;;18.09;76.95
46394;BME280;32099;53.588;10.176;2023-06-24T05:29:01;102070.72;;;18.25;76.18
46394;BME280;32099;53.588;10.176;2023-06-24T05:31:26;102062.09;;;18.34;75.29
46394;BME280;32099;53.588;10.176;2023-06-24T05:33:52;102057.22;;;18.37;74.36
46394;BME280;32099;53.588;10.176;2023-06-24T05:36:17;102058.50;;;18.41;74.36
46394;BME280;32099;53.588;10.176;2023-06-24T05:38:42;102065.81;;;18.55;74.68
46394;BME280;32099;53.588;10.176;2023-06-24T05:41:07;102061.69;;;18.79;73.44
46394;BME280;32099;53.588;10.176;2023-06-24T05:43:33;102055.34;;;18.92;73.19
46394;BME280;32099;53.588;10.176;2023-06-24T05:45:58;102055.84;;;19.03;72.44
46394;BME280;32099;53.588;10.176;2023-06-24T05:48:24;102055.00;;;19.16;72.29
46394;BME280;32099;53.588;10.176;2023-06-24T05:50:49;102058.69;;;19.30;70.74
46394;BME280;32099;53.588;10.176;2023-06-24T05:53:14;102055.94;;;19.43;72.21
46394;BME280;32099;53.588;10.176;2023-06-24T05:55:39;102068.50;;;19.59;70.98
46394;BME280;32099;53.588;10.176;2023-06-24T05:58:05;102056.38;;;19.67;71.74
46394;BME280;32099;53.588;10.176;2023-06-24T06:00:30;102064.47;;;19.75;70.33
46394;BME280;32099;53.588;10.176;2023-06-24T06:02:55;102073.22;;;19.92;70.68
46394;BME280;32099;53.588;10.176;2023-06-24T06:05:21;102071.28;;;20.06;69.63
46394;BME280;32099;53.588;10.176;2023-06-24T06:07:46;102074.06;;;19.99;69.07
46394;BME280;32099;53.588;10.176;2023-06-24T06:10:11;102084.94;;;20.01;69.32
46394;BME280;32099;53.588;10.176;2023-06-24T06:12:36;102086.41;;;20.03;68.48
46394;BME280;32099;53.588;10.176;2023-06-24T06:15:02;102092.78;;;20.11;68.49
46394;BME280;32099;53.588;10.176;2023-06-24T06:17:27;102093.44;;;20.13;68.51
46394;BME280;32099;53.588;10.176;2023-06-24T06:19:53;102098.97;;;20.19;68.92
46394;BME280;32099;53.588;10.176;2023-06-24T06:22:18;102091.47;;;20.40;69.13
46394;BME280;32099;53.588;10.176;2023-06-24T06:24:43;102089.72;;;20.59;67.21
46394;BME280;32099;53.588;10.176;2023-06-24T06:27:09;102094.34;;;20.72;67.97
46394;BME280;32099;53.588;10.176;2023-06-24T06:29:35;102092.25;;;20.81;66.79
46394;BME280;32099;53.588;10.176;2023-06-24T06:32:00;102100.47;;;21.01;67.98
46394;BME280;32099;53.588;10.176;2023-06-24T06:34:26;102109.53;;;21.22;65.79
46394;BME280;32099;53.588;10.176;2023-06-24T06:36:51;102110.13;;;21.31;67.31
46394;BME280;32099;53.588;10.176;2023-06-24T06:39:16;102106.69;;;21.35;66.08
46394;BME280;32099;53.588;10.176;2023-06-24T06:41:41;102102.81;;;21.43;67.43
46394;BME280;32099;53.588;10.176;2023-06-24T06:44:07;102105.94;;;21.53;65.67
46394;BME280;32099;53.588;10.176;2023-06-24T06:46:32;102110.38;;;21.68;66.09
46394;BME280;32099;53.588;10.176;2023-06-24T06:48:57;102110.72;;;21.78;65.15
46394;BME280;32099;53.588;10.176;2023-06-24T06:51:24;102104.88;;;21.86;64.50
46394;BME280;32099;53.588;10.176;2023-06-24T06:53:50;102103.94;;;21.93;63.18
46394;BME280;32099;53.588;10.176;2023-06-24T06:56:16;102104.00;;;21.86;63.77
46394;BME280;32099;53.588;10.176;2023-06-24T06:58:43;102108.38;;;21.75;63.83
46394;BME280;32099;53.588;10.176;2023-06-24T07:01:08;102116.16;;;21.60;63.50
46394;BME280;32099;53.588;10.176;2023-06-24T07:03:33;102097.19;;;21.56;65.43
46394;BME280;32099;53.588;10.176;2023-06-24T07:05:59;102101.91;;;21.81;64.86
46394;BME280;32099;53.588;10.176;2023-06-24T07:08:24;102100.72;;;21.96;63.52
46394;BME280;32099;53.588;10.176;2023-06-24T07:10:49;102101.25;;;22.11;64.12
46394;BME280;32099;53.588;10.176;2023-06-24T07:13:14;102100.81;;;22.33;61.70
46394;BME280;32099;53.588;10.176;2023-06-24T07:15:40;102099.16;;;22.50;61.71
46394;BME280;32099;53.588;10.176;2023-06-24T07:18:05;102097.63;;;22.55;60.17
46394;BME280;32099;53.588;10.176;2023-06-24T07:20:30;102099.16;;;22.50;59.25
46394;BME280;32099;53.588;10.176;2023-06-24T07:22:55;102104.63;;;22.57;61.39
46394;BME280;32099;53.588;10.176;2023-06-24T07:25:21;102105.88;;;22.80;59.63
46394;BME280;32099;53.588;10.176;2023-06-24T07:27:46;102103.78;;;22.94;57.97
46394;BME280;32099;53.588;10.176;2023-06-24T07:30:11;102109.94;;;22.96;57.79
46394;BME280;32099;53.588;10.176;2023-06-24T07:32:37;102110.41;;;23.11;58.95
46394;BME280;32099;53.588;10.176;2023-06-24T07:35:02;102109.81;;;23.40;56.16
46394;BME280;32099;53.588;10.176;2023-06-24T07:37:28;102108.91;;;23.58;56.98
46394;BME280;32099;53.588;10.176;2023-06-24T07:39:53;102110.03;;;23.69;56.93
46394;BME280;32099;53.588;10.176;2023-06-24T07:42:18;102113.81;;;23.86;56.35
46394;BME280;32099;53.588;10.176;2023-06-24T07:44:44;102119.91;;;23.95;55.69
46394;BME280;32099;53.588;10.176;2023-06-24T07:47:10;102115.03;;;23.91;56.06
46394;BME280;32099;53.588;10.176;2023-06-24T07:49:36;102122.81;;;24.00;57.01
46394;BME280;32099;53.588;10.176;2023-06-24T07:52:01;102110.94;;;24.05;55.95
46394;BME280;32099;53.588;10.176;2023-06-24T07:54:27;102110.22;;;24.22;55.25
46394;BME280;32099;53.588;10.176;2023-06-24T07:56:52;102118.34;;;24.47;54.80
46394;BME280;32099;53.588;10.176;2023-06-24T07:59:17;102123.28;;;24.45;52.35
46394;BME280;32099;53.588;10.176;2023-06-24T08:01:42;102126.09;;;24.33;55.08
46394;BME280;32099;53.588;10.176;2023-06-24T08:04:08;102125.88;;;24.23;54.07
46394;BME280;32099;53.588;10.176;2023-06-24T08:06:33;102115.19;;;24.19;54.79
46394;BME280;32099;53.588;10.176;2023-06-24T08:08:58;102112.88;;;24.40;54.31
46394;BME280;32099;53.588;10.176;2023-06-24T08:11:24;102111.06;;;24.58;54.80
46394;BME280;32099;53.588;10.176;2023-06-24T08:13:49;102110.31;;;24.62;54.21
46394;BME280;32099;53.588;10.176;2023-06-24T08:16:15;102116.50;;;24.76;52.21
46394;BME280;32099;53.588;10.176;2023-06-24T08:18:42;102108.94;;;24.89;52.32
46394;BME280;32099;53.588;10.176;2023-06-24T08:21:07;102114.59;;;25.06;48.03
46394;BME280;32099;53.588;10.176;2023-06-24T08:23:33;102109.13;;;25.11;52.85
46394;BME280;32099;53.588;10.176;2023-06-24T08:25:58;102110.69;;;25.19;53.25
46394;BME280;32099;53.588;10.176;2023-06-24T08:28:23;102105.59;;;25.45;51.85
46394;BME280;32099;53.588;10.176;2023-06-24T08:30:48;102103.59;;;25.57;51.50
46394;BME280;32099;53.588;10.176;2023-06-24T08:33:14;102095.81;;;25.76;51.55
46394;BME280;32099;53.588;10.176;2023-06-24T08:35:39;102107.50;;;26.07;50.53
46394;BME280;32099;53.588;10.176;2023-06-24T08:38:04;102093.19;;;26.21;50.14
46394;BME280;32099;53.588;10.176;2023-06-24T08:40:29;102099.75;;;26.48;49.93
46394;BME280;32099;53.588;10.176;2023-06-24T08:42:55;102105.50;;;26.59;49.15
46394;BME280;32099;53.588;10.176;2023-06-24T08:45:20;102103.75;;;26.75;50.08
46394;BME280;32099;53.588;10.176;2023-06-24T08:47:46;102089.41;;;26.88;49.14
46394;BME280;32099;53.588;10.176;2023-06-24T08:50:15;102088.50;;;26.83;48.69
46394;BME280;32099;53.588;10.176;2023-06-24T08:52:42;102091.69;;;26.91;49.93
46394;BME280;32099;53.588;10.176;2023-06-24T08:55:10;102090.50;;;26.87;47.41
46394;BME280;32099;53.588;10.176;2023-06-24T08:57:39;102091.72;;;26.74;49.09
46394;BME280;32099;53.588;10.176;2023-06-24T09:00:05;102095.28;;;26.70;46.97
46394;BME280;32099;53.588;10.176;2023-06-24T09:02:34;102087.66;;;26.65;50.27
46394;BME280;32099;53.588;10.176;2023-06-24T09:05:03;102101.28;;;26.78;50.08
46394;BME280;32099;53.588;10.176;2023-06-24T09:07:29;102091.44;;;26.76;49.44
46394;BME280;32099;53.588;10.176;2023-06-24T09:09:54;102105.44;;;26.76;51.24
46394;BME280;32099;53.588;10.176;2023-06-24T09:12:20;102097.72;;;26.83;51.32
46394;BME280;32099;53.588;10.176;2023-06-24T09:14:48;102105.72;;;26.97;49.10
46394;BME280;32099;53.588;10.176;2023-06-24T09:17:15;102099.66;;;27.05;48.63
46394;BME280;32099;53.588;10.176;2023-06-24T09:19:41;102107.53;;;27.08;48.78
46394;BME280;32099;53.588;10.176;2023-06-24T09:22:07;102106.25;;;27.21;50.72
46394;BME280;32099;53.588;10.176;2023-06-24T09:24:33;102097.19;;;27.36;46.94
46394;BME280;32099;53.588;10.176;2023-06-24T09:26:59;102105.50;;;27.25;47.33
46394;BME280;32099;53.588;10.176;2023-06-24T09:29:25;102101.81;;;27.20;50.00
46394;BME280;32099;53.588;10.176;2023-06-24T09:31:52;102095.41;;;27.24;49.68
46394;BME280;32099;53.588;10.176;2023-06-24T09:34:18;102101.09;;;27.35;47.95
46394;BME280;32099;53.588;10.176;2023-06-24T09:36:51;102098.44;;;27.23;49.05
46394;BME280;32099;53.588;10.176;2023-06-24T09:39:17;102088.13;;;27.23;49.19
46394;BME280;32099;53.588;10.176;2023-06-24T09:41:42;102094.34;;;27.31;48.65
46394;BME280;32099;53.588;10.176;2023-06-24T09:44:08;102094.41;;;27.36;48.31
46394;BME280;32099;53.588;10.176;2023-06-24T09:46:36;102094.84;;;27.50;47.22
46394;BME280;32099;53.588;10.176;2023-06-24T09:49:03;102086.63;;;27.70;49.42
46394;BME280;32099;53.588;10.176;2023-06-24T09:51:29;102091.53;;;27.91;47.46
46394;BME280;32099;53.588;10.176;2023-06-24T09:53:57;102086.81;;;27.96;45.59
46394;BME280;32099;53.588;10.176;2023-06-24T09:56:23;102081.72;;;27.88;47.26
46394;BME280;32099;53.588;10.176;2023-06-24T09:58:49;102090.75;;;27.95;48.15
46394;BME280;32099;53.588;10.176;2023-06-24T10:01:14;102087.22;;;28.10;47.59
46394;BME280;32099;53.588;10.176;2023-06-24T10:03:41;102088.91;;;28.11;45.81
46394;BME280;32099;53.588;10.176;2023-06-24T10:06:07;102085.28;;;28.11;46.58
46394;BME280;32099;53.588;10.176;2023-06-24T10:08:33;102077.69;;;28.11;46.07
46394;BME280;32099;53.588;10.176;2023-06-24T10:10:59;102084.38;;;28.05;42.74
46394;BME280;32099;53.588;10.176;2023-06-24T10:13:25;102078.06;;;27.87;44.51
46394;BME280;32099;53.588;10.176;2023-06-24T10:15:51;102073.72;;;27.69;45.95
46394;BME280;32099;53.588;10.176;2023-06-24T10:18:31;102070.09;;;27.69;43.82
46394;BME280;32099;53.588;10.176;2023-06-24T10:20:59;102063.44;;;27.80;48.18
46394;BME280;32099;53.588;10.176;2023-06-24T10:23:35;102064.97;;;27.98;47.35
46394;BME280;32099;53.588;10.176;2023-06-24T10:26:14;102061.31;;;27.93;44.67
46394;BME280;32099;53.588;10.176;2023-06-24T10:36:53;102052.91;;;27.98;45.74
46394;BME280;32099;53.588;10.176;2023-06-24T10:39:45;102062.66;;;27.90;46.60
46394;BME280;32099;53.588;10.176;2023-06-24T10:44:48;102061.41;;;27.70;46.40
46394;BME280;32099;53.588;10.176;2023-06-24T10:47:14;102046.84;;;27.74;48.14
46394;BME280;32099;53.588;10.176;2023-06-24T10:49:40;102045.28;;;27.88;48.19
46394;BME280;32099;53.588;10.176;2023-06-24T10:52:09;102042.00;;;28.01;45.83
46394;BME280;32099;53.588;10.176;2023-06-24T10:54:36;102049.13;;;28.14;48.43
46394;BME280;32099;53.588;10.176;2023-06-24T10:57:03;102041.31;;;28.22;46.17
46394;BME280;32099;53.588;10.176;2023-06-24T10:59:33;102045.66;;;28.02;46.64
46394;BME280;32099;53.588;10.176;2023-06-24T11:01:59;102037.47;;;27.95;47.27
46394;BME280;32099;53.588;10.176;2023-06-24T11:04:24;102032.75;;;28.01;47.66
46394;BME280;32099;53.588;10.176;2023-06-24T11:07:00;102026.06;;;28.07;47.07
46394;BME280;32099;53.588;10.176;2023-06-24T11:09:26;102022.22;;;28.18;47.76
46394;BME280;32099;53.588;10.176;2023-06-24T11:11:51;102021.09;;;28.20;47.50
46394;BME280;32099;53.588;10.176;2023-06-24T11:14:17;102018.00;;;28.16;48.29
46394;BME280;32099;53.588;10.176;2023-06-24T11:16:43;102016.06;;;28.22;48.06
46394;BME280;32099;53.588;10.176;2023-06-24T11:19:10;102015.59;;;28.30;48.12
46394;BME280;32099;53.588;10.176;2023-06-24T11:21:35;102008.34;;;28.44;45.56
46394;BME280;32099;53.588;10.176;2023-06-24T11:24:02;102010.56;;;28.37;46.83
46394;BME280;32099;53.588;10.176;2023-06-24T11:26:28;102013.81;;;28.18;45.99
46394;BME280;32099;53.588;10.176;2023-06-24T11:28:53;102018.50;;;28.08;45.22
46394;BME280;32099;53.588;10.176;2023-06-24T11:31:18;102012.38;;;28.11;46.01
46394;BME280;32099;53.588;10.176;2023-06-24T11:33:48;102005.56;;;28.01;46.66
46394;BME280;32099;53.588;10.176;2023-06-24T11:36:16;102004.44;;;27.97;48.06
46394;BME280;32099;53.588;10.176;2023-06-24T11:38:42;102012.66;;;28.09;47.04
46394;BME280;32099;53.588;10.176;2023-06-24T11:41:07;102017.19;;;28.15;45.37
46394;BME280;32099;53.588;10.176;2023-06-24T11:43:33;102017.91;;;28.06;46.24
46394;BME280;32099;53.588;10.176;2023-06-24T11:45:58;102013.81;;;28.13;47.20
46394;BME280;32099;53.588;10.176;2023-06-24T11:48:27;102014.09;;;28.17;45.94
46394;BME280;32099;53.588;10.176;2023-06-24T11:50:53;102010.47;;;28.22;45.50
46394;BME280;32099;53.588;10.176;2023-06-24T11:53:28;102001.00;;;28.33;46.34
46394;BME280;32099;53.588;10.176;2023-06-24T11:55:55;101995.97;;;28.35;44.53
46394;BME280;32099;53.588;10.176;2023-06-24T11:58:21;101996.19;;;28.23;46.61
46394;BME280;32099;53.588;10.176;2023-06-24T12:00:46;101988.63;;;28.24;41.97
46394;BME280;32099;53.588;10.176;2023-06-24T12:03:13;101983.28;;;28.22;43.38
46394;BME280;32099;53.588;10.176;2023-06-24T12:05:39;101981.84;;;28.14;45.26
46394;BME280;32099;53.588;10.176;2023-06-24T12:08:10;101983.25;;;28.17;46.33
46394;BME280;32099;53.588;10.176;2023-06-24T12:10:37;101984.72;;;28.30;45.00
46394;BME280;32099;53.588;10.176;2023-06-24T12:13:03;101987.28;;;28.42;46.84
46394;BME280;32099;53.588;10.176;2023-06-24T12:15:31;101983.16;;;28.60;47.24
46394;BME280;32099;53.588;10.176;2023-06-24T12:17:56;101983.50;;;28.74;45.36
46394;BME280;32099;53.588;10.176;2023-06-24T12:20:22;101984.34;;;28.79;46.42
46394;BME280;32099;53.588;10.176;2023-06-24T12:22:48;101978.16;;;28.77;46.04
46394;BME280;32099;53.588;10.176;2023-06-24T12:25:14;101981.81;;;28.83;44.61
46394;BME280;32099;53.588;10.176;2023-06-24T12:27:41;101988.28;;;28.78;45.10
46394;BME280;32099;53.588;10.176;2023-06-24T12:30:08;101992.78;;;28.74;46.64
46394;BME280;32099;53.588;10.176;2023-06-24T12:32:34;101994.16;;;28.82;45.39
46394;BME280;32099;53.588;10.176;2023-06-24T12:34:59;101993.06;;;28.88;46.17
46394;BME280;32099;53.588;10.176;2023-06-24T12:37:24;101993.91;;;28.89;45.17
46394;BME280;32099;53.588;10.176;2023-06-24T12:39:50;101986.88;;;28.76;45.24
46394;BME280;32099;53.588;10.176;2023-06-24T12:42:18;101992.41;;;28.71;46.25
46394;BME280;32099;53.588;10.176;2023-06-24T12:44:43;101987.91;;;28.59;45.10
46394;BME280;32099;53.588;10.176;2023-06-24T12:47:08;101981.94;;;28.35;47.34
46394;BME280;32099;53.588;10.176;2023-06-24T12:49:34;101980.78;;;28.31;46.11
46394;BME280;32099;53.588;10.176;2023-06-24T12:51:59;101972.66;;;28.29;46.91
46394;BME280;32099;53.588;10.176;2023-06-24T12:54:26;101974.59;;;28.24;46.39